Terminal Aerodrome Forecast
Issued by NWS San Angelo, TX

Current Version | Previous Version | Text Only | Print | Product List | Glossary Off
Versions: 1 2 3 4 5 6 7 8 9 10 11 12 13 14 15 16 17 18 19 20 21 22 23 24 25

000
FTUS44 KSJT 211100
TAFSJT
TAF
KSJT 211131Z 2112/2212 VRB03KT P6SM OVC100
     FM211400 11006KT P6SM BKN040 BKN100
     FM211800 12007KT P6SM VCSH BKN050=

USA.gov is the U.S. government's official web portal to all federal, state and local government web resources and services.